FOOLFKYS

Guest
Details From FOOL - Leon M Ba
To FKYS - YAOUNDE NSIMALEN
Flight Number -
Tags generated
Created
Modified
Stats Distance 234 nm / 434 km
Max Altitude 29,600 ft / 9,022 m
Waypoints 4
Social Downloads 1
Likes 0
Share VATSIM

Download

Looking for another format? Having issues loading an existing format? Contact us
Advertisement - Login to hide

Notes

Basic altitude profile: - Ascent Rate: 2500ft/min - Ascent Speed: 250kts - Cruise Altitude: 35000ft - Cruise Speed: 420kts - Descent Rate: 1500ft/min - Descent Speed: 250kts Options: - Use NATs: no - Use PACOTS: no - Use low airways: yes - Use high airways: yes

Route

FOOL ARASI UH455 ETNOM FKYS

ID Type Via Altitude Latitude Longitude Leg Dist Tot Dist Heading (true) Name
O FOOL APT - 0 ft / 0 m 0.45862˚ 9.41225˚ - 0 nm - Leon M Ba
ARASI FIX - 29,600 ft / 9,022 m 1.80056˚ 10.27750˚ 95 nm 95 nm 33° / 33° -
ETNOM FIX UH455 (AWY-HI) 23,500 ft / 7,163 m 2.48750˚ 10.73306˚ 49 nm 145 nm 34° / 34° -
O FKYS APT - 0 ft / 0 m 3.72255˚ 11.55327˚ 89 nm 234 nm 34° / 34° YAOUNDE NSIMALEN

Altitude Profile

Advertisement - Login to hide

Weather


0- 5 10 15 20 25 30 35+ Temperature / ° C

Clouds and Precipitation
Forecast for 2018-05-21 12:00 UTC. Updated 16 minutes ago

Ground ~20,000 ft ~40,000 ft Winds

FOOL

Details ICAO FOOL (LBV)
Name Leon M Ba
Region Gabon
Timezone Africa/Libreville (UTC+1.0)
Stats Elevation 39 ft / 12 m (AMSL)
Location 0.458616° 9.412250°
Runways 1
Magnetic Variation 1.880° W

METAR

FOOL 210900Z 14010KT 9999 SCT016 29/24 Q1012 NOSIG

Decode

TAF

TAF FOOL 210500Z 2106/2212 16007KT 9999 SCT010 FEW020CB BKN033 PROB30 TEMPO 2106/2109 4500 RA TEMPO 2114/2120 TS PROB30 TEMPO 2121/2205 2500 TSRA BKN008 FEW016CB OVC026

Decode

Departure Runways

ID Width Length Bearing (true) Bearing (mag) Surface Threshold Offset Overrun Length
16 148 ft / 45 m 9,889 ft / 3,014 m 154.19° 156.07° Asphalt 0 ft / 0 m 192 ft / 59 m
34 148 ft / 45 m 9,889 ft / 3,014 m 334.19° 336.07° Asphalt 0 ft / 0 m 209 ft / 64 m

FKYS

Details ICAO FKYS (NSI)
Name YAOUNDE NSIMALEN
Region Cameroon
Timezone Africa/Douala (UTC+1.0)
Stats Elevation 2,278 ft / 694 m (AMSL)
Location 3.722554° 11.553270°
Runways 1
Magnetic Variation 0.639° W

METAR

FKYS 210900Z /////KT 8000 R19/1200V1400N BKN011 25/21 Q1018 BECMG BKN010

Decode

TAF

TAF FKYS 210500Z 2106/2206 VRB03KT 8000 SCT002 BKN006 TEMPO 2106/2107 0800 FG BECMG 2106/2108 BKN016

Decode

Destination Runways

ID Width Length Bearing (true) Bearing (mag) Surface Threshold Offset Overrun Length
01 148 ft / 45 m 11,220 ft / 3,420 m 9.87° 10.51° Asphalt 0 ft / 0 m 200 ft / 61 m
19 148 ft / 45 m 11,220 ft / 3,420 m 189.87° 190.51° Asphalt 0 ft / 0 m 200 ft / 61 m

Popular Alternatives